createdAt,value
2019-05-13T00:00:05.349Z,2.00
2019-05-13T00:02:40.739Z,2.17
2019-05-13T00:05:11.659Z,2.47
2019-05-13T00:07:47.383Z,2.50
2019-05-13T00:10:17.775Z,2.50
2019-05-13T00:12:48.169Z,2.17
2019-05-13T00:15:18.768Z,1.97
2019-05-13T00:17:49.406Z,2.10
2019-05-13T00:20:19.798Z,2.30
2019-05-13T00:22:54.165Z,1.90
2019-05-13T00:25:25.255Z,2.13
2019-05-13T00:27:55.520Z,2.13
2019-05-13T00:30:26.229Z,2.17
2019-05-13T00:32:58.281Z,2.20
2019-05-13T00:35:28.971Z,2.87
2019-05-13T00:37:59.699Z,2.73
2019-05-13T00:40:33.433Z,2.47
2019-05-13T00:43:04.149Z,2.13
2019-05-13T00:45:34.705Z,2.20
2019-05-13T00:48:05.188Z,2.33
2019-05-13T00:50:35.568Z,2.70
2019-05-13T00:53:06.653Z,2.13
2019-05-13T00:55:37.698Z,3.17
2019-05-13T00:58:08.324Z,2.83
2019-05-13T01:00:38.983Z,2.50
2019-05-13T01:03:09.697Z,2.70
2019-05-13T01:05:40.292Z,2.83
2019-05-13T01:08:10.605Z,2.50
2019-05-13T01:10:40.924Z,2.30
2019-05-13T01:13:13.176Z,5.50
2019-05-13T01:15:44.259Z,2.93
2019-05-13T01:18:15.636Z,2.43
2019-05-13T01:20:49.859Z,2.80
2019-05-13T01:23:20.572Z,2.50
2019-05-13T01:25:51.255Z,2.33
2019-05-13T01:28:23.911Z,2.33
2019-05-13T01:30:54.649Z,2.43
2019-05-13T01:33:26.489Z,2.67
2019-05-13T01:35:57.234Z,2.50
2019-05-13T01:38:27.857Z,2.70
2019-05-13T01:40:58.897Z,2.70
2019-05-13T01:43:29.557Z,2.20
2019-05-13T01:46:00.342Z,3.03
2019-05-13T01:48:33.307Z,2.53
2019-05-13T01:51:04.089Z,2.40
2019-05-13T01:53:35.230Z,2.70
2019-05-13T01:56:05.551Z,2.87
2019-05-13T01:58:36.179Z,2.57
2019-05-13T02:01:10.711Z,2.33
2019-05-13T02:03:41.075Z,3.17
2019-05-13T02:06:13.958Z,2.40
2019-05-13T02:08:44.342Z,2.97
2019-05-13T02:11:14.999Z,2.80
2019-05-13T02:13:45.639Z,2.20
2019-05-13T02:16:16.258Z,2.50
2019-05-13T02:18:46.585Z,2.67
2019-05-13T02:21:16.863Z,2.70
2019-05-13T02:23:47.847Z,2.37
2019-05-13T02:26:18.612Z,3.07
2019-05-13T02:28:49.204Z,2.60
2019-05-13T02:31:31.953Z,2.73
2019-05-13T02:33:53.166Z,2.43
2019-05-13T02:36:23.739Z,2.27
2019-05-13T02:38:54.805Z,2.30
2019-05-13T02:41:25.766Z,2.53
2019-05-13T02:43:56.684Z,2.40
2019-05-13T02:46:27.016Z,2.63
2019-05-13T02:48:57.642Z,3.00
2019-05-13T02:51:28.248Z,2.20
2019-05-13T02:53:59.254Z,3.93
2019-05-13T02:56:32.821Z,2.83
2019-05-13T02:59:04.042Z,2.70
2019-05-13T03:01:34.700Z,2.93
2019-05-13T03:04:05.759Z,2.50
2019-05-13T03:06:36.373Z,2.73
2019-05-13T03:09:08.654Z,2.70
2019-05-13T03:11:41.513Z,2.70
2019-05-13T03:14:12.819Z,2.67
2019-05-13T03:16:53.497Z,2.90
2019-05-13T03:19:23.823Z,2.50
2019-05-13T03:21:54.813Z,2.80
2019-05-13T03:24:25.562Z,2.87
2019-05-13T03:26:56.195Z,2.40
2019-05-13T03:29:26.825Z,2.60
2019-05-13T03:31:57.143Z,2.50
2019-05-13T03:34:28.577Z,3.40
2019-05-13T03:37:05.473Z,2.40
2019-05-13T03:39:35.416Z,3.17
2019-05-13T03:42:06.562Z,2.90
2019-05-13T03:44:42.576Z,2.77
2019-05-13T03:47:12.931Z,2.93
2019-05-13T03:49:44.822Z,3.30
2019-05-13T03:52:16.052Z,3.00
2019-05-13T03:54:47.676Z,2.93
2019-05-13T03:57:18.451Z,2.57
2019-05-13T03:59:52.560Z,3.30
2019-05-13T04:02:24.009Z,3.40
2019-05-13T04:04:58.354Z,2.70
2019-05-13T04:07:27.018Z,3.57
2019-05-13T04:09:57.571Z,3.03
2019-05-13T04:12:28.681Z,3.00
2019-05-13T04:15:03.277Z,3.03
2019-05-13T04:17:33.070Z,3.10
2019-05-13T04:20:03.586Z,3.20
2019-05-13T04:22:34.030Z,2.97
2019-05-13T04:25:05.250Z,3.23
2019-05-13T04:27:36.299Z,3.10
2019-05-13T04:30:13.399Z,2.90
2019-05-13T04:32:44.224Z,2.47
2019-05-13T04:35:14.938Z,2.57
2019-05-13T04:37:45.573Z,3.00
2019-05-13T04:40:16.114Z,3.10
2019-05-13T04:42:46.423Z,3.10
2019-05-13T04:45:18.215Z,3.03
2019-05-13T04:47:52.564Z,3.60
2019-05-13T04:50:22.635Z,3.70
2019-05-13T04:52:54.176Z,3.30
2019-05-13T04:55:24.520Z,4.00
2019-05-13T04:57:55.747Z,3.20
2019-05-13T05:01:28.302Z,3.17
2019-05-13T05:04:22.150Z,3.23
2019-05-13T05:07:03.481Z,3.40
2019-05-13T05:10:22.080Z,3.80
2019-05-13T05:13:26.651Z,4.00
2019-05-13T05:16:28.963Z,3.00
2019-05-13T05:19:32.366Z,3.70
2019-05-13T05:22:24.523Z,3.37
2019-05-13T05:25:13.944Z,3.10
2019-05-13T05:28:33.803Z,3.27
2019-05-13T05:31:36.955Z,3.03
2019-05-13T05:35:26.679Z,3.20
2019-05-13T05:38:25.246Z,3.17
2019-05-13T05:40:56.344Z,3.30
2019-05-13T05:43:31.376Z,3.47
2019-05-13T05:46:04.255Z,3.50
2019-05-13T05:48:38.094Z,3.40
2019-05-13T05:51:13.199Z,3.40
2019-05-13T05:53:47.315Z,3.30
2019-05-13T05:56:22.008Z,3.33
2019-05-13T05:58:54.152Z,3.03
2019-05-13T06:01:26.227Z,3.23
2019-05-13T06:03:58.585Z,3.30
2019-05-13T06:06:33.003Z,3.97
2019-05-13T06:09:06.784Z,2.93
2019-05-13T06:11:38.102Z,3.30
2019-05-13T06:14:11.116Z,3.07
2019-05-13T06:16:42.534Z,3.70
2019-05-13T06:19:13.182Z,3.00
2019-05-13T06:21:43.871Z,3.13
2019-05-13T06:24:14.204Z,3.27
2019-05-13T06:26:44.530Z,3.83
2019-05-13T06:29:15.357Z,3.30
2019-05-13T06:31:46.214Z,3.73
2019-05-13T06:34:16.878Z,3.13
2019-05-13T06:36:48.315Z,3.53
2019-05-13T06:39:19.127Z,3.90
2019-05-13T06:41:51.657Z,3.50
2019-05-13T06:44:22.755Z,3.90
2019-05-13T06:46:53.486Z,3.80
2019-05-13T06:49:23.998Z,4.03
2019-05-13T06:51:54.400Z,3.97
2019-05-13T06:54:25.198Z,3.63
2019-05-13T06:56:55.951Z,3.67
2019-05-13T06:59:34.074Z,4.40
2019-05-13T07:02:04.590Z,3.77
2019-05-13T07:04:35.424Z,3.90
2019-05-13T07:07:13.142Z,3.90
2019-05-13T07:09:42.675Z,3.10
2019-05-13T07:12:12.928Z,3.63
2019-05-13T07:14:55.160Z,3.90
2019-05-13T07:17:25.215Z,3.43
2019-05-13T07:19:55.688Z,3.23
2019-05-13T07:22:26.624Z,4.17
2019-05-13T07:24:57.354Z,4.20
2019-05-13T07:27:28.168Z,4.57
2019-05-13T07:29:58.531Z,4.07
2019-05-13T07:32:31.488Z,3.50
2019-05-13T07:35:13.367Z,3.53
2019-05-13T07:37:44.874Z,3.60
2019-05-13T07:40:16.126Z,3.63
2019-05-13T07:42:46.876Z,3.90
2019-05-13T07:45:21.321Z,3.60
2019-05-13T07:47:52.241Z,3.73
2019-05-13T07:50:25.084Z,3.30
2019-05-13T07:52:55.867Z,3.47
2019-05-13T07:55:26.378Z,3.50
2019-05-13T07:57:57.488Z,3.27
2019-05-13T08:00:27.941Z,3.80
2019-05-13T08:03:01.017Z,3.60
2019-05-13T08:05:31.525Z,3.63
2019-05-13T08:08:02.461Z,3.97
2019-05-13T08:10:33.651Z,3.83
2019-05-13T08:13:22.266Z,3.97
2019-05-13T08:15:54.886Z,4.20
2019-05-13T08:18:34.096Z,3.63
2019-05-13T08:21:04.795Z,4.03
2019-05-13T08:23:35.598Z,3.97
2019-05-13T08:26:05.980Z,4.00
2019-05-13T08:28:52.797Z,3.50
2019-05-13T08:31:09.165Z,3.13
2019-05-13T08:33:42.300Z,3.23
2019-05-13T08:36:13.400Z,3.10
2019-05-13T08:38:43.958Z,2.87
2019-05-13T08:41:19.002Z,2.67
2019-05-13T08:44:16.237Z,2.93
2019-05-13T08:46:58.665Z,2.73
2019-05-13T08:49:32.517Z,2.73
2019-05-13T08:52:05.876Z,3.03
2019-05-13T08:54:36.492Z,2.60
2019-05-13T08:57:07.397Z,2.63
2019-05-13T08:59:42.193Z,2.47
2019-05-13T09:02:11.940Z,3.00
2019-05-13T09:04:42.650Z,2.80
2019-05-13T09:07:16.609Z,2.10
2019-05-13T09:09:47.139Z,1.97
2019-05-13T09:14:52.608Z,2.27
2019-05-13T09:17:24.062Z,1.80
2019-05-13T09:19:57.087Z,2.40
2019-05-13T09:22:28.717Z,2.23
2019-05-13T09:25:02.151Z,2.67
2019-05-13T09:27:35.020Z,2.70
2019-05-13T09:30:08.438Z,2.47
2019-05-13T09:32:39.351Z,2.70
2019-05-13T09:35:12.018Z,2.80
2019-05-13T09:37:51.657Z,2.57
2019-05-13T09:40:24.862Z,3.23
2019-05-13T09:42:55.530Z,2.67
2019-05-13T09:45:26.846Z,2.33
2019-05-13T09:48:05.084Z,2.93
2019-05-13T09:50:36.316Z,2.83
2019-05-13T09:53:22.315Z,3.30
2019-05-13T09:55:58.026Z,2.70
2019-05-13T09:58:32.185Z,2.37
2019-05-13T10:01:02.996Z,3.10
2019-05-13T10:03:33.793Z,2.53
2019-05-13T10:06:04.886Z,2.63
2019-05-13T10:08:35.230Z,2.57
2019-05-13T10:11:15.672Z,2.67
2019-05-13T10:13:46.266Z,2.67
2019-05-13T10:16:16.685Z,3.00
2019-05-13T10:18:48.011Z,3.33
2019-05-13T10:21:21.672Z,2.90
2019-05-13T10:23:58.806Z,2.57
2019-05-13T10:26:28.076Z,3.20
2019-05-13T10:29:01.732Z,2.47
2019-05-13T10:31:37.631Z,3.03
2019-05-13T10:34:08.700Z,2.50
2019-05-13T10:36:41.545Z,2.87
2019-05-13T10:39:14.032Z,2.80
2019-05-13T10:41:45.003Z,2.70
2019-05-13T10:44:16.405Z,2.50
2019-05-13T10:46:52.062Z,2.93
2019-05-13T10:49:22.971Z,2.40
2019-05-13T10:51:53.509Z,2.60
2019-05-13T10:54:23.970Z,2.93
2019-05-13T10:56:59.425Z,2.67
2019-05-13T10:59:27.084Z,2.67
2019-05-13T11:02:02.708Z,2.33
2019-05-13T11:04:36.440Z,2.67
2019-05-13T11:07:07.391Z,2.90
2019-05-13T11:09:41.797Z,2.60
2019-05-13T11:12:13.296Z,2.30
2019-05-13T11:14:51.495Z,2.40
2019-05-13T11:17:31.093Z,2.83
2019-05-13T11:20:03.110Z,2.43
2019-05-13T11:22:32.998Z,2.60
2019-05-13T11:25:03.358Z,2.70
2019-05-13T11:27:34.934Z,2.50
2019-05-13T11:30:07.281Z,2.30
2019-05-13T11:32:38.345Z,2.40
2019-05-13T11:35:12.359Z,2.50
2019-05-13T11:37:43.572Z,2.70
2019-05-13T11:40:14.475Z,2.70
2019-05-13T11:42:45.270Z,2.23
2019-05-13T11:45:16.289Z,2.60
2019-05-13T11:47:46.690Z,2.77
2019-05-13T11:50:17.536Z,2.67
2019-05-13T11:52:47.891Z,2.60
2019-05-13T11:55:18.740Z,2.40
2019-05-13T11:57:49.333Z,2.47
2019-05-13T12:00:53.209Z,2.73
2019-05-13T12:03:23.527Z,2.20
2019-05-13T12:05:54.190Z,2.30
2019-05-13T12:08:25.392Z,2.10
2019-05-13T12:10:55.715Z,2.43
2019-05-13T12:13:26.734Z,2.20
2019-05-13T12:15:57.709Z,2.07
2019-05-13T12:18:31.214Z,1.77
2019-05-13T12:21:03.327Z,1.97
2019-05-13T12:23:34.388Z,2.20
2019-05-13T12:26:06.349Z,2.00
2019-05-13T12:28:41.533Z,2.00
2019-05-13T12:31:13.427Z,1.90
2019-05-13T12:33:44.290Z,1.80
2019-05-13T12:36:18.566Z,2.07
2019-05-13T12:38:52.940Z,1.57
2019-05-13T12:41:23.042Z,1.47
2019-05-13T12:43:54.260Z,2.13
2019-05-13T12:46:25.141Z,1.80
2019-05-13T12:48:55.665Z,1.60
2019-05-13T12:51:26.313Z,1.70
2019-05-13T12:53:56.762Z,1.80
2019-05-13T12:56:32.843Z,1.80
2019-05-13T12:59:02.904Z,1.90
2019-05-13T13:01:33.620Z,2.17
2019-05-13T13:04:04.424Z,2.00
2019-05-13T13:06:40.698Z,1.70
2019-05-13T13:09:12.434Z,2.37
2019-05-13T13:11:43.467Z,1.70
2019-05-13T13:14:16.538Z,2.00
2019-05-13T13:16:46.766Z,1.50
2019-05-13T13:19:17.438Z,1.80
2019-05-13T13:21:47.743Z,1.50
2019-05-13T13:24:18.046Z,1.57
2019-05-13T13:26:48.369Z,1.33
2019-05-13T13:29:21.993Z,1.47
2019-05-13T13:31:55.664Z,1.40
2019-05-13T13:34:26.402Z,1.85
2019-05-13T13:36:57.143Z,1.50
2019-05-13T13:39:27.950Z,1.37
2019-05-13T13:42:04.981Z,1.40
2019-05-13T13:44:35.001Z,1.30
2019-05-13T13:47:16.994Z,1.37
2019-05-13T13:49:49.735Z,1.43
2019-05-13T13:52:22.907Z,1.67
2019-05-13T13:55:09.151Z,1.47
2019-05-13T13:57:44.822Z,1.80
2019-05-13T14:00:32.918Z,1.40
2019-05-13T14:02:53.723Z,1.70
2019-05-13T14:05:42.577Z,1.57
2019-05-13T14:07:04.309Z,2.60
2019-05-13T14:08:15.377Z,1.70
2019-05-13T14:10:47.174Z,1.67
2019-05-13T14:13:28.048Z,1.53
2019-05-13T14:16:01.876Z,1.37
2019-05-13T14:18:36.954Z,1.73
2019-05-13T14:21:08.259Z,1.40
2019-05-13T14:23:47.452Z,1.50
2019-05-13T14:26:22.222Z,1.50
2019-05-13T14:29:02.667Z,1.83
2019-05-13T14:31:41.397Z,1.30
2019-05-13T14:34:12.929Z,1.97
2019-05-13T14:36:48.125Z,1.40
2019-05-13T14:39:24.552Z,1.40
2019-05-13T14:42:01.543Z,1.80
2019-05-13T14:44:41.390Z,1.90
2019-05-13T14:47:12.599Z,1.30
2019-05-13T14:49:43.367Z,1.63
2019-05-13T14:52:13.832Z,1.40
2019-05-13T14:54:44.443Z,1.80
2019-05-13T14:57:15.218Z,2.00
2019-05-13T14:59:47.996Z,1.40
2019-05-13T15:02:25.846Z,1.47
2019-05-13T15:04:57.494Z,1.70
2019-05-13T15:07:31.692Z,1.53
2019-05-13T15:10:12.291Z,1.40
2019-05-13T15:12:45.999Z,1.90
2019-05-13T15:15:22.419Z,1.60
2019-05-13T15:17:54.735Z,1.73
2019-05-13T15:20:25.144Z,1.47
2019-05-13T15:22:59.268Z,1.70
2019-05-13T15:25:35.610Z,1.90
2019-05-13T15:28:07.369Z,1.60
2019-05-13T15:30:42.247Z,1.73
2019-05-13T15:33:25.969Z,1.70
2019-05-13T15:36:16.067Z,1.77
2019-05-13T15:38:51.525Z,1.73
2019-05-13T15:41:41.767Z,1.80
2019-05-13T15:44:18.617Z,2.00
2019-05-13T15:46:49.066Z,1.60
2019-05-13T15:49:27.506Z,1.70
2019-05-13T15:52:01.716Z,2.10
2019-05-13T15:54:32.723Z,2.13
2019-05-13T15:57:03.969Z,1.80
2019-05-13T15:59:34.555Z,2.50
2019-05-13T16:02:08.489Z,1.90
2019-05-13T16:04:49.918Z,1.90
2019-05-13T16:07:12.547Z,1.67
2019-05-13T16:09:43.206Z,1.57
2019-05-13T16:12:14.202Z,1.50
2019-05-13T16:14:44.856Z,2.00
2019-05-13T16:17:15.938Z,1.70
2019-05-13T16:19:47.111Z,1.60
2019-05-13T16:22:19.634Z,1.83
2019-05-13T16:24:52.118Z,1.70
2019-05-13T16:27:22.401Z,1.57
2019-05-13T16:29:53.347Z,1.90
2019-05-13T16:32:24.138Z,1.70
2019-05-13T16:34:54.849Z,1.70
2019-05-13T16:37:26.109Z,2.27
2019-05-13T16:39:56.834Z,1.63
2019-05-13T16:42:31.706Z,1.47
2019-05-13T16:45:14.838Z,1.60
2019-05-13T16:47:37.177Z,1.43
2019-05-13T16:50:08.776Z,1.70
2019-05-13T16:52:41.645Z,1.60
2019-05-13T16:55:13.999Z,1.73
2019-05-13T16:57:44.367Z,1.40
2019-05-13T17:00:18.174Z,1.57
2019-05-13T17:02:49.652Z,1.80
2019-05-13T17:05:21.558Z,1.97
2019-05-13T17:07:56.585Z,1.57
2019-05-13T17:10:31.549Z,1.60
2019-05-13T17:13:04.041Z,1.60
2019-05-13T17:15:46.314Z,1.60
2019-05-13T17:18:26.851Z,1.47
2019-05-13T17:21:01.431Z,1.73
2019-05-13T17:23:36.374Z,1.60
2019-05-13T17:26:07.294Z,1.90
2019-05-13T17:28:38.006Z,1.80
2019-05-13T17:31:08.788Z,1.40
2019-05-13T17:33:42.783Z,1.43
2019-05-13T17:36:15.599Z,1.53
2019-05-13T17:38:52.127Z,1.97
2019-05-13T17:41:32.046Z,1.73
2019-05-13T17:44:15.201Z,1.60
2019-05-13T17:46:48.128Z,2.10
2019-05-13T17:49:18.702Z,1.83
2019-05-13T17:51:51.679Z,1.97
2019-05-13T17:54:22.811Z,1.53
2019-05-13T17:56:54.123Z,1.50
2019-05-13T17:59:41.953Z,1.50
2019-05-13T18:02:27.630Z,1.90
2019-05-13T18:05:01.991Z,1.67
2019-05-13T18:07:47.828Z,1.93
2019-05-13T18:10:37.231Z,1.70
2019-05-13T18:13:16.377Z,1.70
2019-05-13T18:15:56.783Z,1.63
2019-05-13T18:18:43.114Z,1.63
2019-05-13T18:21:11.815Z,1.70
2019-05-13T18:23:44.615Z,1.83
2019-05-13T18:26:16.353Z,1.77
2019-05-13T18:29:02.388Z,1.53
2019-05-13T18:31:42.082Z,2.17
2019-05-13T18:34:21.513Z,1.90
2019-05-13T18:37:02.426Z,1.67
2019-05-13T18:39:33.744Z,1.50
2019-05-13T18:42:18.642Z,1.70
2019-05-13T18:44:56.122Z,1.57
2019-05-13T18:47:28.010Z,1.73
2019-05-13T18:50:02.350Z,1.43
2019-05-13T18:52:35.017Z,2.17
2019-05-13T18:55:07.877Z,2.30
2019-05-13T18:57:38.581Z,2.40
2019-05-13T19:00:11.105Z,2.10
2019-05-13T19:02:41.867Z,2.30
2019-05-13T19:05:12.706Z,2.23
2019-05-13T19:07:46.409Z,2.20
2019-05-13T19:10:22.002Z,2.77
2019-05-13T19:12:57.926Z,2.10
2019-05-13T19:15:32.986Z,1.80
2019-05-13T19:18:04.116Z,2.23
2019-05-13T19:20:35.172Z,2.40
2019-05-13T19:23:11.955Z,2.43
2019-05-13T19:25:42.681Z,2.07
2019-05-13T19:28:15.088Z,1.93
2019-05-13T19:31:02.423Z,1.70
2019-05-13T19:33:43.233Z,2.33
2019-05-13T19:36:20.996Z,2.00
2019-05-13T19:38:55.803Z,1.70
2019-05-13T19:41:31.501Z,1.93
2019-05-13T19:44:06.424Z,1.60
2019-05-13T19:46:53.640Z,2.13
2019-05-13T19:49:32.105Z,2.10
2019-05-13T19:51:56.719Z,1.87
2019-05-13T19:54:31.281Z,2.23
2019-05-13T19:57:08.130Z,2.00
2019-05-13T19:59:42.496Z,1.97
2019-05-13T20:02:17.429Z,2.13
2019-05-13T20:04:48.406Z,1.70
2019-05-13T20:07:19.152Z,2.60
2019-05-13T20:09:52.020Z,2.50
2019-05-13T20:12:22.486Z,2.43
2019-05-13T20:15:03.342Z,2.30
2019-05-13T20:17:41.600Z,2.20
2019-05-13T20:20:31.745Z,2.40
2019-05-13T20:23:05.226Z,2.13
2019-05-13T20:25:41.736Z,2.63
2019-05-13T20:28:42.778Z,2.10
2019-05-13T20:31:17.829Z,2.00
2019-05-13T20:33:51.775Z,2.10
2019-05-13T20:36:25.145Z,2.17
2019-05-13T20:39:07.743Z,2.60
2019-05-13T20:41:41.470Z,1.90
2019-05-13T20:44:12.442Z,2.20
2019-05-13T20:46:47.204Z,2.17
2019-05-13T20:49:22.751Z,1.63
2019-05-13T20:51:53.765Z,1.83
2019-05-13T20:54:24.671Z,1.97
2019-05-13T20:56:58.890Z,1.90
2019-05-13T20:59:32.300Z,1.80
2019-05-13T21:02:14.796Z,1.77
2019-05-13T21:04:57.147Z,1.90
2019-05-13T21:07:29.437Z,1.73
2019-05-13T21:10:09.101Z,2.50
2019-05-13T21:12:41.951Z,2.03
2019-05-13T21:15:13.202Z,3.00
2019-05-13T21:17:55.566Z,2.00
2019-05-13T21:20:41.013Z,1.70
2019-05-13T21:23:11.413Z,2.00
2019-05-13T21:25:46.114Z,1.90
2019-05-13T21:28:17.877Z,2.13
2019-05-13T21:30:52.768Z,2.00
2019-05-13T21:33:24.276Z,2.23
2019-05-13T21:35:57.021Z,1.80
2019-05-13T21:38:32.238Z,1.80
2019-05-13T21:41:11.933Z,1.87
2019-05-13T21:44:15.662Z,1.90
2019-05-13T21:47:21.938Z,1.67
2019-05-13T21:50:37.355Z,2.10
2019-05-13T21:53:01.944Z,2.23
2019-05-13T21:56:05.701Z,1.93
2019-05-13T21:58:36.918Z,1.90
2019-05-13T22:01:07.583Z,1.90
2019-05-13T22:03:38.184Z,1.80
2019-05-13T22:06:10.967Z,1.70
2019-05-13T22:08:42.289Z,1.80
2019-05-13T22:11:31.719Z,1.60
2019-05-13T22:14:19.458Z,1.47
2019-05-13T22:16:56.923Z,1.63
2019-05-13T22:20:07.187Z,1.63
2019-05-13T22:23:23.271Z,1.60
2019-05-13T22:27:21.778Z,1.60
2019-05-13T22:30:40.738Z,1.57
2019-05-13T22:34:01.589Z,2.10
2019-05-13T22:37:41.197Z,1.70
2019-05-13T22:40:17.157Z,1.20
2019-05-13T22:42:57.259Z,1.60
2019-05-13T22:45:41.919Z,1.50
2019-05-13T22:48:15.862Z,1.60
2019-05-13T22:50:53.867Z,1.60
2019-05-13T22:53:24.564Z,1.60
2019-05-13T22:55:55.006Z,1.43
2019-05-13T22:58:31.786Z,1.40
2019-05-13T23:01:13.614Z,1.40
2019-05-13T23:03:46.612Z,1.90
2019-05-13T23:06:24.008Z,1.60
2019-05-13T23:09:02.029Z,1.60
2019-05-13T23:11:44.023Z,1.80
2019-05-13T23:14:30.049Z,1.60
2019-05-13T23:17:07.726Z,1.30
2019-05-13T23:19:51.981Z,1.40
2019-05-13T23:22:25.702Z,1.40
2019-05-13T23:25:03.735Z,1.60
2019-05-13T23:27:41.567Z,1.60
2019-05-13T23:30:15.745Z,1.40
2019-05-13T23:32:48.427Z,1.60
2019-05-13T23:35:21.729Z,1.30
2019-05-13T23:37:54.070Z,1.57
2019-05-13T23:40:24.563Z,1.40
2019-05-13T23:42:54.785Z,1.50
2019-05-13T23:45:26.535Z,1.80
2019-05-13T23:47:56.911Z,1.80
2019-05-13T23:50:32.045Z,2.00
2019-05-13T23:53:00.361Z,1.80
2019-05-13T23:55:32.213Z,1.60
2019-05-13T23:58:03.153Z,2.03
